sensor_id;sensor_type;location;lat;lon;timestamp;noise_LAeq;noise_LA_min;noise_LA_max;noise_LA01;noise_LA95
73638;Laerm;53743;51.100;5.874;2023-05-20T00:00:15;59.39;29.64;78.86;;
73638;Laerm;53743;51.100;5.874;2023-05-20T00:01:17;56.20;30.64;71.21;;
73638;Laerm;53743;51.100;5.874;2023-05-20T00:02:19;59.61;30.60;73.13;;
73638;Laerm;53743;51.100;5.874;2023-05-20T00:03:21;51.19;30.92;66.03;;
73638;Laerm;53743;51.100;5.874;2023-05-20T00:04:23;33.59;30.57;38.37;;
73638;Laerm;53743;51.100;5.874;2023-05-20T00:05:25;33.73;31.00;37.83;;
73638;Laerm;53743;51.100;5.874;2023-05-20T00:06:28;43.19;33.21;53.48;;
73638;Laerm;53743;51.100;5.874;2023-05-20T00:07:29;62.59;37.37;81.45;;
73638;Laerm;53743;51.100;5.874;2023-05-20T00:08:33;55.54;30.31;69.36;;
73638;Laerm;53743;51.100;5.874;2023-05-20T00:09:36;32.21;29.64;43.98;;
73638;Laerm;53743;51.100;5.874;2023-05-20T00:10:39;59.53;30.56;72.89;;
73638;Laerm;53743;51.100;5.874;2023-05-20T00:11:41;58.80;29.65;72.47;;
73638;Laerm;53743;51.100;5.874;2023-05-20T00:12:43;33.18;29.65;40.78;;
73638;Laerm;53743;51.100;5.874;2023-05-20T00:13:45;55.67;35.76;71.60;;
73638;Laerm;53743;51.100;5.874;2023-05-20T00:14:48;53.13;30.10;67.97;;
73638;Laerm;53743;51.100;5.874;2023-05-20T00:15:51;56.08;30.34;70.24;;
73638;Laerm;53743;51.100;5.874;2023-05-20T00:16:54;34.41;30.13;44.73;;
73638;Laerm;53743;51.100;5.874;2023-05-20T00:17:56;33.07;29.87;40.83;;
73638;Laerm;53743;51.100;5.874;2023-05-20T00:18:59;58.08;29.53;71.99;;
73638;Laerm;53743;51.100;5.874;2023-05-20T00:20:00;52.59;29.78;70.98;;
73638;Laerm;53743;51.100;5.874;2023-05-20T00:21:03;35.45;29.64;47.37;;
73638;Laerm;53743;51.100;5.874;2023-05-20T00:22:05;55.32;28.96;69.38;;
73638;Laerm;53743;51.100;5.874;2023-05-20T00:23:08;34.69;29.30;44.65;;
73638;Laerm;53743;51.100;5.874;2023-05-20T00:24:10;30.86;28.67;35.26;;
73638;Laerm;53743;51.100;5.874;2023-05-20T00:25:13;31.34;29.22;45.61;;
73638;Laerm;53743;51.100;5.874;2023-05-20T00:26:15;55.61;29.39;70.49;;
73638;Laerm;53743;51.100;5.874;2023-05-20T00:27:21;32.89;29.45;43.10;;
73638;Laerm;53743;51.100;5.874;2023-05-20T00:28:22;57.31;29.65;73.82;;
73638;Laerm;53743;51.100;5.874;2023-05-20T00:29:25;59.21;29.04;74.22;;
73638;Laerm;53743;51.100;5.874;2023-05-20T00:30:32;33.19;29.12;41.00;;
73638;Laerm;53743;51.100;5.874;2023-05-20T00:31:34;58.39;30.51;74.78;;
73638;Laerm;53743;51.100;5.874;2023-05-20T00:32:36;32.70;29.50;37.06;;
73638;Laerm;53743;51.100;5.874;2023-05-20T00:33:38;60.94;29.04;77.28;;
73638;Laerm;53743;51.100;5.874;2023-05-20T00:34:42;58.61;29.45;74.80;;
73638;Laerm;53743;51.100;5.874;2023-05-20T00:35:48;43.37;28.76;57.97;;
73638;Laerm;53743;51.100;5.874;2023-05-20T00:36:50;31.02;28.99;33.94;;
73638;Laerm;53743;51.100;5.874;2023-05-20T00:37:52;32.42;29.85;36.94;;
73638;Laerm;53743;51.100;5.874;2023-05-20T00:38:54;57.12;29.30;72.33;;
73638;Laerm;53743;51.100;5.874;2023-05-20T00:40:00;31.90;29.46;37.70;;
73638;Laerm;53743;51.100;5.874;2023-05-20T00:41:02;56.31;29.81;73.56;;
73638;Laerm;53743;51.100;5.874;2023-05-20T00:42:05;57.48;29.25;76.31;;
73638;Laerm;53743;51.100;5.874;2023-05-20T00:43:06;31.53;29.42;44.58;;
73638;Laerm;53743;51.100;5.874;2023-05-20T00:44:09;31.33;29.29;35.06;;
73638;Laerm;53743;51.100;5.874;2023-05-20T00:45:11;31.19;28.95;34.98;;
73638;Laerm;53743;51.100;5.874;2023-05-20T00:46:14;51.13;28.79;69.92;;
73638;Laerm;53743;51.100;5.874;2023-05-20T00:47:20;62.52;29.56;77.16;;
73638;Laerm;53743;51.100;5.874;2023-05-20T00:48:23;54.64;29.03;67.89;;
73638;Laerm;53743;51.100;5.874;2023-05-20T00:49:24;42.07;28.55;57.48;;
73638;Laerm;53743;51.100;5.874;2023-05-20T00:50:27;33.72;28.26;46.30;;
73638;Laerm;53743;51.100;5.874;2023-05-20T00:51:29;56.11;28.94;71.19;;
73638;Laerm;53743;51.100;5.874;2023-05-20T00:52:33;56.81;29.99;72.00;;
73638;Laerm;53743;51.100;5.874;2023-05-20T00:53:36;36.04;29.24;48.34;;
73638;Laerm;53743;51.100;5.874;2023-05-20T00:54:42;58.24;29.61;74.89;;
73638;Laerm;53743;51.100;5.874;2023-05-20T00:55:46;32.23;28.79;40.28;;
73638;Laerm;53743;51.100;5.874;2023-05-20T00:56:56;30.42;28.32;33.79;;
73638;Laerm;53743;51.100;5.874;2023-05-20T00:58:01;30.27;28.65;34.21;;
73638;Laerm;53743;51.100;5.874;2023-05-20T00:59:04;30.49;28.40;34.15;;
73638;Laerm;53743;51.100;5.874;2023-05-20T01:00:08;31.49;28.95;44.83;;
73638;Laerm;53743;51.100;5.874;2023-05-20T01:01:11;56.71;30.29;76.64;;
73638;Laerm;53743;51.100;5.874;2023-05-20T01:02:13;57.10;29.75;70.33;;
73638;Laerm;53743;51.100;5.874;2023-05-20T01:03:17;52.36;28.73;70.48;;
73638;Laerm;53743;51.100;5.874;2023-05-20T01:04:20;32.99;29.33;44.32;;
73638;Laerm;53743;51.100;5.874;2023-05-20T01:05:22;31.42;29.14;35.70;;
73638;Laerm;53743;51.100;5.874;2023-05-20T01:06:27;30.43;28.62;41.94;;
73638;Laerm;53743;51.100;5.874;2023-05-20T01:07:30;31.17;28.51;35.24;;
73638;Laerm;53743;51.100;5.874;2023-05-20T01:08:32;30.48;28.62;34.13;;
73638;Laerm;53743;51.100;5.874;2023-05-20T01:09:35;59.46;28.54;74.98;;
73638;Laerm;53743;51.100;5.874;2023-05-20T01:10:47;50.13;28.87;66.25;;
73638;Laerm;53743;51.100;5.874;2023-05-20T01:12:00;49.56;28.81;67.01;;
73638;Laerm;53743;51.100;5.874;2023-05-20T01:13:09;30.85;28.84;33.68;;
73638;Laerm;53743;51.100;5.874;2023-05-20T01:14:17;30.47;28.33;47.25;;
73638;Laerm;53743;51.100;5.874;2023-05-20T01:15:23;30.40;28.50;32.90;;
73638;Laerm;53743;51.100;5.874;2023-05-20T01:16:30;30.85;28.65;42.60;;
73638;Laerm;53743;51.100;5.874;2023-05-20T01:17:39;55.01;30.03;74.10;;
73638;Laerm;53743;51.100;5.874;2023-05-20T01:18:47;31.35;29.08;35.17;;
73638;Laerm;53743;51.100;5.874;2023-05-20T01:19:50;54.63;29.07;70.06;;
73638;Laerm;53743;51.100;5.874;2023-05-20T01:20:59;54.34;29.57;69.60;;
73638;Laerm;53743;51.100;5.874;2023-05-20T01:22:06;30.36;28.43;33.64;;
73638;Laerm;53743;51.100;5.874;2023-05-20T01:23:13;30.69;28.71;33.18;;
73638;Laerm;53743;51.100;5.874;2023-05-20T01:24:16;30.75;28.73;34.12;;
73638;Laerm;53743;51.100;5.874;2023-05-20T01:25:18;31.03;29.17;35.95;;
73638;Laerm;53743;51.100;5.874;2023-05-20T01:26:20;30.79;29.07;32.63;;
73638;Laerm;53743;51.100;5.874;2023-05-20T01:27:27;31.09;28.84;40.48;;
73638;Laerm;53743;51.100;5.874;2023-05-20T01:28:32;37.99;28.60;57.05;;
73638;Laerm;53743;51.100;5.874;2023-05-20T01:29:35;30.89;28.93;32.87;;
73638;Laerm;53743;51.100;5.874;2023-05-20T01:30:50;30.99;29.02;35.14;;
73638;Laerm;53743;51.100;5.874;2023-05-20T01:31:59;30.97;29.06;35.28;;
73638;Laerm;53743;51.100;5.874;2023-05-20T01:33:08;57.52;29.09;74.33;;
73638;Laerm;53743;51.100;5.874;2023-05-20T01:34:12;31.67;28.95;37.74;;
73638;Laerm;53743;51.100;5.874;2023-05-20T01:35:18;31.41;29.09;34.46;;
73638;Laerm;53743;51.100;5.874;2023-05-20T01:36:21;31.26;29.28;33.37;;
73638;Laerm;53743;51.100;5.874;2023-05-20T01:37:27;31.74;29.34;45.37;;
73638;Laerm;53743;51.100;5.874;2023-05-20T01:38:36;30.44;28.66;32.91;;
73638;Laerm;53743;51.100;5.874;2023-05-20T01:39:41;30.47;28.34;32.96;;
73638;Laerm;53743;51.100;5.874;2023-05-20T01:40:45;31.66;28.79;39.26;;
73638;Laerm;53743;51.100;5.874;2023-05-20T01:41:49;57.33;29.64;73.31;;
73638;Laerm;53743;51.100;5.874;2023-05-20T01:42:54;31.17;29.26;36.08;;
73638;Laerm;53743;51.100;5.874;2023-05-20T01:43:57;31.54;29.49;35.45;;
73638;Laerm;53743;51.100;5.874;2023-05-20T01:44:59;30.97;29.12;41.22;;
73638;Laerm;53743;51.100;5.874;2023-05-20T01:46:05;30.20;28.33;33.05;;
73638;Laerm;53743;51.100;5.874;2023-05-20T01:47:07;30.31;28.48;33.03;;
73638;Laerm;53743;51.100;5.874;2023-05-20T01:48:11;32.99;28.66;41.31;;
73638;Laerm;53743;51.100;5.874;2023-05-20T01:49:14;32.24;29.40;40.09;;
73638;Laerm;53743;51.100;5.874;2023-05-20T01:50:15;31.13;29.05;34.81;;
73638;Laerm;53743;51.100;5.874;2023-05-20T01:51:18;31.63;29.23;34.20;;
73638;Laerm;53743;51.100;5.874;2023-05-20T01:52:20;31.30;29.07;34.63;;
73638;Laerm;53743;51.100;5.874;2023-05-20T01:53:23;30.86;29.02;32.88;;
73638;Laerm;53743;51.100;5.874;2023-05-20T01:54:26;31.45;29.36;45.66;;
73638;Laerm;53743;51.100;5.874;2023-05-20T01:55:30;30.70;28.40;35.87;;
73638;Laerm;53743;51.100;5.874;2023-05-20T01:56:32;30.50;28.85;32.91;;
73638;Laerm;53743;51.100;5.874;2023-05-20T01:57:35;31.46;29.05;40.59;;
73638;Laerm;53743;51.100;5.874;2023-05-20T01:58:36;33.32;29.79;40.82;;
73638;Laerm;53743;51.100;5.874;2023-05-20T01:59:39;41.92;30.18;52.27;;
73638;Laerm;53743;51.100;5.874;2023-05-20T02:00:41;58.05;29.88;74.10;;
73638;Laerm;53743;51.100;5.874;2023-05-20T02:01:43;32.86;29.26;41.54;;
73638;Laerm;53743;51.100;5.874;2023-05-20T02:02:49;31.54;29.53;34.54;;
73638;Laerm;53743;51.100;5.874;2023-05-20T02:03:51;31.18;29.30;36.16;;
73638;Laerm;53743;51.100;5.874;2023-05-20T02:04:54;30.55;28.59;34.35;;
73638;Laerm;53743;51.100;5.874;2023-05-20T02:05:55;30.54;28.80;33.88;;
73638;Laerm;53743;51.100;5.874;2023-05-20T02:07:00;30.52;28.73;32.56;;
73638;Laerm;53743;51.100;5.874;2023-05-20T02:08:01;31.36;28.96;34.84;;
73638;Laerm;53743;51.100;5.874;2023-05-20T02:09:04;31.91;29.50;35.72;;
73638;Laerm;53743;51.100;5.874;2023-05-20T02:10:09;57.57;30.46;70.56;;
73638;Laerm;53743;51.100;5.874;2023-05-20T02:11:11;33.93;29.09;43.82;;
73638;Laerm;53743;51.100;5.874;2023-05-20T02:12:13;31.08;29.07;42.16;;
73638;Laerm;53743;51.100;5.874;2023-05-20T02:13:17;30.87;28.82;34.43;;
73638;Laerm;53743;51.100;5.874;2023-05-20T02:14:19;30.75;28.81;33.18;;
73638;Laerm;53743;51.100;5.874;2023-05-20T02:15:21;31.07;29.17;35.59;;
73638;Laerm;53743;51.100;5.874;2023-05-20T02:16:23;31.28;29.52;34.52;;
73638;Laerm;53743;51.100;5.874;2023-05-20T02:17:26;31.74;28.70;42.28;;
73638;Laerm;53743;51.100;5.874;2023-05-20T02:18:27;35.25;28.98;49.62;;
73638;Laerm;53743;51.100;5.874;2023-05-20T02:19:31;37.73;29.31;54.07;;
73638;Laerm;53743;51.100;5.874;2023-05-20T02:20:35;36.44;29.22;52.40;;
73638;Laerm;53743;51.100;5.874;2023-05-20T02:21:38;37.29;28.85;50.95;;
73638;Laerm;53743;51.100;5.874;2023-05-20T02:22:39;37.75;29.11;53.65;;
73638;Laerm;53743;51.100;5.874;2023-05-20T02:23:42;59.12;30.14;74.40;;
73638;Laerm;53743;51.100;5.874;2023-05-20T02:24:43;42.88;29.44;68.24;;
73638;Laerm;53743;51.100;5.874;2023-05-20T02:25:48;56.50;29.02;70.82;;
73638;Laerm;53743;51.100;5.874;2023-05-20T02:26:50;55.32;28.81;70.96;;
73638;Laerm;53743;51.100;5.874;2023-05-20T02:27:54;56.54;29.77;70.89;;
73638;Laerm;53743;51.100;5.874;2023-05-20T02:28:56;57.16;29.57;72.96;;
73638;Laerm;53743;51.100;5.874;2023-05-20T02:30:01;56.34;29.92;71.26;;
73638;Laerm;53743;51.100;5.874;2023-05-20T02:31:02;56.82;29.82;73.22;;
73638;Laerm;53743;51.100;5.874;2023-05-20T02:32:06;54.39;29.98;72.06;;
73638;Laerm;53743;51.100;5.874;2023-05-20T02:33:09;45.22;30.42;60.47;;
73638;Laerm;53743;51.100;5.874;2023-05-20T02:34:12;49.17;31.15;63.63;;
73638;Laerm;53743;51.100;5.874;2023-05-20T02:35:14;49.27;31.79;66.22;;
73638;Laerm;53743;51.100;5.874;2023-05-20T02:36:16;46.11;31.94;60.25;;
73638;Laerm;53743;51.100;5.874;2023-05-20T02:37:18;48.89;31.44;63.88;;
73638;Laerm;53743;51.100;5.874;2023-05-20T02:38:21;52.23;31.73;67.70;;
73638;Laerm;53743;51.100;5.874;2023-05-20T02:39:23;53.16;31.69;69.83;;
73638;Laerm;53743;51.100;5.874;2023-05-20T02:40:25;43.01;32.30;57.17;;
73638;Laerm;53743;51.100;5.874;2023-05-20T02:41:30;55.93;32.14;72.49;;
73638;Laerm;53743;51.100;5.874;2023-05-20T02:42:32;44.44;33.16;56.49;;
73638;Laerm;53743;51.100;5.874;2023-05-20T02:43:34;47.14;34.54;57.63;;
73638;Laerm;53743;51.100;5.874;2023-05-20T02:44:37;49.39;33.75;58.98;;
73638;Laerm;53743;51.100;5.874;2023-05-20T02:45:39;44.88;33.97;56.65;;
73638;Laerm;53743;51.100;5.874;2023-05-20T02:46:42;44.94;31.99;56.56;;
73638;Laerm;53743;51.100;5.874;2023-05-20T02:47:44;47.67;32.28;60.48;;
73638;Laerm;53743;51.100;5.874;2023-05-20T02:48:46;48.44;32.37;68.46;;
73638;Laerm;53743;51.100;5.874;2023-05-20T02:49:48;47.07;32.60;60.48;;
73638;Laerm;53743;51.100;5.874;2023-05-20T02:50:50;43.66;32.16;59.06;;
73638;Laerm;53743;51.100;5.874;2023-05-20T02:51:51;43.81;32.48;59.81;;
73638;Laerm;53743;51.100;5.874;2023-05-20T02:52:54;60.33;33.15;76.31;;
73638;Laerm;53743;51.100;5.874;2023-05-20T02:53:55;48.69;33.91;61.58;;
73638;Laerm;53743;51.100;5.874;2023-05-20T02:54:59;47.37;33.05;60.92;;
73638;Laerm;53743;51.100;5.874;2023-05-20T02:56:02;48.48;33.48;64.28;;
73638;Laerm;53743;51.100;5.874;2023-05-20T02:57:05;47.48;33.45;62.50;;
73638;Laerm;53743;51.100;5.874;2023-05-20T02:58:10;47.68;32.00;65.03;;
73638;Laerm;53743;51.100;5.874;2023-05-20T02:59:13;42.06;31.81;56.75;;
73638;Laerm;53743;51.100;5.874;2023-05-20T03:00:16;42.60;32.65;53.77;;
73638;Laerm;53743;51.100;5.874;2023-05-20T03:01:19;55.33;32.35;69.37;;
73638;Laerm;53743;51.100;5.874;2023-05-20T03:02:20;40.18;31.42;51.47;;
73638;Laerm;53743;51.100;5.874;2023-05-20T03:03:25;39.02;31.05;50.27;;
73638;Laerm;53743;51.100;5.874;2023-05-20T03:04:27;38.66;31.61;50.45;;
73638;Laerm;53743;51.100;5.874;2023-05-20T03:05:30;38.71;32.77;48.40;;
73638;Laerm;53743;51.100;5.874;2023-05-20T03:06:32;38.77;31.73;49.90;;
73638;Laerm;53743;51.100;5.874;2023-05-20T03:07:35;39.71;31.80;53.04;;
73638;Laerm;53743;51.100;5.874;2023-05-20T03:08:38;42.99;31.28;57.05;;
73638;Laerm;53743;51.100;5.874;2023-05-20T03:09:42;42.18;32.26;53.45;;
73638;Laerm;53743;51.100;5.874;2023-05-20T03:10:44;43.80;32.43;56.88;;
73638;Laerm;53743;51.100;5.874;2023-05-20T03:11:48;57.28;32.85;73.11;;
73638;Laerm;53743;51.100;5.874;2023-05-20T03:12:50;43.96;31.14;57.03;;
73638;Laerm;53743;51.100;5.874;2023-05-20T03:13:53;38.15;31.42;49.18;;
73638;Laerm;53743;51.100;5.874;2023-05-20T03:14:54;38.16;31.51;50.86;;
73638;Laerm;53743;51.100;5.874;2023-05-20T03:15:59;39.04;30.43;50.55;;
73638;Laerm;53743;51.100;5.874;2023-05-20T03:17:01;40.32;31.78;53.64;;
73638;Laerm;53743;51.100;5.874;2023-05-20T03:18:04;40.85;32.25;52.39;;
73638;Laerm;53743;51.100;5.874;2023-05-20T03:19:06;39.94;32.71;50.54;;
73638;Laerm;53743;51.100;5.874;2023-05-20T03:20:11;41.44;31.17;63.29;;
73638;Laerm;53743;51.100;5.874;2023-05-20T03:21:14;37.47;31.68;49.20;;
73638;Laerm;53743;51.100;5.874;2023-05-20T03:22:17;55.57;32.05;69.80;;
73638;Laerm;53743;51.100;5.874;2023-05-20T03:23:19;47.80;32.42;60.68;;
73638;Laerm;53743;51.100;5.874;2023-05-20T03:24:23;58.17;33.15;75.41;;
73638;Laerm;53743;51.100;5.874;2023-05-20T03:25:24;50.27;33.33;64.43;;
73638;Laerm;53743;51.100;5.874;2023-05-20T03:26:27;46.07;32.80;59.84;;
73638;Laerm;53743;51.100;5.874;2023-05-20T03:27:29;46.86;33.62;59.53;;
73638;Laerm;53743;51.100;5.874;2023-05-20T03:28:34;52.55;33.19;66.16;;
73638;Laerm;53743;51.100;5.874;2023-05-20T03:29:36;46.79;32.19;60.40;;
73638;Laerm;53743;51.100;5.874;2023-05-20T03:30:41;57.58;34.10;71.56;;
73638;Laerm;53743;51.100;5.874;2023-05-20T03:31:44;56.81;32.62;73.83;;
73638;Laerm;53743;51.100;5.874;2023-05-20T03:32:47;46.17;32.49;61.62;;
73638;Laerm;53743;51.100;5.874;2023-05-20T03:33:49;45.44;32.65;63.01;;
73638;Laerm;53743;51.100;5.874;2023-05-20T03:34:51;47.73;33.51;61.42;;
73638;Laerm;53743;51.100;5.874;2023-05-20T03:35:54;56.03;33.77;69.88;;
73638;Laerm;53743;51.100;5.874;2023-05-20T03:36:59;46.60;32.42;62.79;;
73638;Laerm;53743;51.100;5.874;2023-05-20T03:38:01;47.07;32.83;59.04;;
73638;Laerm;53743;51.100;5.874;2023-05-20T03:39:03;59.92;32.81;77.00;;
73638;Laerm;53743;51.100;5.874;2023-05-20T03:40:08;58.94;33.18;78.82;;
73638;Laerm;53743;51.100;5.874;2023-05-20T03:41:11;43.51;32.63;58.14;;
73638;Laerm;53743;51.100;5.874;2023-05-20T03:42:14;46.20;31.84;61.44;;
73638;Laerm;53743;51.100;5.874;2023-05-20T03:43:15;45.17;32.31;60.35;;
73638;Laerm;53743;51.100;5.874;2023-05-20T03:44:19;46.97;33.34;60.29;;
73638;Laerm;53743;51.100;5.874;2023-05-20T03:45:20;44.47;32.29;58.65;;
73638;Laerm;53743;51.100;5.874;2023-05-20T03:46:34;38.42;31.97;53.74;;
73638;Laerm;53743;51.100;5.874;2023-05-20T03:47:37;37.20;31.43;47.92;;
73638;Laerm;53743;51.100;5.874;2023-05-20T03:48:40;56.61;32.85;71.46;;
73638;Laerm;53743;51.100;5.874;2023-05-20T03:49:42;44.68;31.65;64.11;;
73638;Laerm;53743;51.100;5.874;2023-05-20T03:50:44;45.57;31.66;63.72;;
73638;Laerm;53743;51.100;5.874;2023-05-20T03:51:46;45.32;31.85;56.21;;
73638;Laerm;53743;51.100;5.874;2023-05-20T03:52:49;58.64;33.36;73.04;;
73638;Laerm;53743;51.100;5.874;2023-05-20T03:53:53;46.38;32.92;59.40;;
73638;Laerm;53743;51.100;5.874;2023-05-20T03:54:56;61.60;33.75;74.65;;
73638;Laerm;53743;51.100;5.874;2023-05-20T03:55:57;44.81;31.44;57.72;;
73638;Laerm;53743;51.100;5.874;2023-05-20T03:57:00;39.71;32.03;53.31;;
73638;Laerm;53743;51.100;5.874;2023-05-20T03:58:03;39.06;31.58;53.56;;
73638;Laerm;53743;51.100;5.874;2023-05-20T03:59:08;39.87;30.87;60.88;;
73638;Laerm;53743;51.100;5.874;2023-05-20T04:00:12;63.59;34.71;76.57;;
73638;Laerm;53743;51.100;5.874;2023-05-20T04:01:19;39.20;32.66;57.61;;
73638;Laerm;53743;51.100;5.874;2023-05-20T04:02:21;60.26;32.07;76.79;;
73638;Laerm;53743;51.100;5.874;2023-05-20T04:03:24;37.87;31.65;48.45;;
73638;Laerm;53743;51.100;5.874;2023-05-20T04:04:26;38.59;31.42;58.08;;
73638;Laerm;53743;51.100;5.874;2023-05-20T04:05:29;40.59;32.51;64.73;;
73638;Laerm;53743;51.100;5.874;2023-05-20T04:06:32;39.04;32.79;50.27;;
73638;Laerm;53743;51.100;5.874;2023-05-20T04:07:35;57.42;32.21;72.87;;
73638;Laerm;53743;51.100;5.874;2023-05-20T04:08:37;38.95;31.37;49.30;;
73638;Laerm;53743;51.100;5.874;2023-05-20T04:09:39;36.87;31.95;48.00;;
73638;Laerm;53743;51.100;5.874;2023-05-20T04:10:42;38.10;32.02;49.09;;
73638;Laerm;53743;51.100;5.874;2023-05-20T04:11:46;54.92;33.07;69.39;;
73638;Laerm;53743;51.100;5.874;2023-05-20T04:12:48;48.63;33.48;64.66;;
73638;Laerm;53743;51.100;5.874;2023-05-20T04:13:50;61.69;34.13;73.26;;
73638;Laerm;53743;51.100;5.874;2023-05-20T04:14:52;38.08;32.99;48.72;;
73638;Laerm;53743;51.100;5.874;2023-05-20T04:16:00;40.93;33.24;56.97;;
73638;Laerm;53743;51.100;5.874;2023-05-20T04:17:04;42.90;32.23;59.10;;
73638;Laerm;53743;51.100;5.874;2023-05-20T04:18:07;42.75;33.06;58.55;;
73638;Laerm;53743;51.100;5.874;2023-05-20T04:19:09;57.31;32.63;72.40;;
73638;Laerm;53743;51.100;5.874;2023-05-20T04:20:12;44.56;32.09;59.03;;
73638;Laerm;53743;51.100;5.874;2023-05-20T04:21:13;38.98;32.36;51.04;;
73638;Laerm;53743;51.100;5.874;2023-05-20T04:22:21;43.79;32.96;62.32;;
73638;Laerm;53743;51.100;5.874;2023-05-20T04:23:23;51.23;32.61;66.57;;
73638;Laerm;53743;51.100;5.874;2023-05-20T04:24:26;60.90;37.73;72.41;;
73638;Laerm;53743;51.100;5.874;2023-05-20T04:25:28;47.88;33.92;63.51;;
73638;Laerm;53743;51.100;5.874;2023-05-20T04:26:31;58.76;32.78;74.66;;
73638;Laerm;53743;51.100;5.874;2023-05-20T04:27:33;59.18;33.88;75.99;;
73638;Laerm;53743;51.100;5.874;2023-05-20T04:28:39;43.03;33.07;61.51;;
73638;Laerm;53743;51.100;5.874;2023-05-20T04:29:42;57.94;34.39;72.92;;
73638;Laerm;53743;51.100;5.874;2023-05-20T04:30:46;61.04;36.16;71.75;;
73638;Laerm;53743;51.100;5.874;2023-05-20T04:31:49;46.92;34.11;59.41;;
73638;Laerm;53743;51.100;5.874;2023-05-20T04:32:54;46.00;32.51;59.30;;
73638;Laerm;53743;51.100;5.874;2023-05-20T04:33:56;56.15;32.05;70.56;;
73638;Laerm;53743;51.100;5.874;2023-05-20T04:34:59;61.96;36.07;77.84;;
73638;Laerm;53743;51.100;5.874;2023-05-20T04:36:02;55.33;33.24;70.43;;
73638;Laerm;53743;51.100;5.874;2023-05-20T04:37:08;59.23;33.99;72.41;;
73638;Laerm;53743;51.100;5.874;2023-05-20T04:38:10;61.98;35.38;78.87;;
73638;Laerm;53743;51.100;5.874;2023-05-20T04:39:14;61.83;35.51;77.00;;
73638;Laerm;53743;51.100;5.874;2023-05-20T04:40:16;60.64;34.58;77.60;;
73638;Laerm;53743;51.100;5.874;2023-05-20T04:41:19;60.41;33.27;78.01;;
73638;Laerm;53743;51.100;5.874;2023-05-20T04:42:20;58.45;34.47;74.73;;
73638;Laerm;53743;51.100;5.874;2023-05-20T04:43:24;38.93;33.02;52.52;;
73638;Laerm;53743;51.100;5.874;2023-05-20T04:44:26;38.65;33.57;53.18;;
73638;Laerm;53743;51.100;5.874;2023-05-20T04:45:30;62.16;34.86;80.82;;
73638;Laerm;53743;51.100;5.874;2023-05-20T04:46:33;61.46;33.22;77.77;;
73638;Laerm;53743;51.100;5.874;2023-05-20T04:47:36;54.83;33.38;73.70;;
73638;Laerm;53743;51.100;5.874;2023-05-20T04:48:42;57.16;35.85;70.96;;
73638;Laerm;53743;51.100;5.874;2023-05-20T04:49:44;45.92;34.17;62.92;;
73638;Laerm;53743;51.100;5.874;2023-05-20T04:50:49;56.79;34.17;71.83;;
73638;Laerm;53743;51.100;5.874;2023-05-20T04:51:52;41.35;33.50;55.34;;
73638;Laerm;53743;51.100;5.874;2023-05-20T04:52:55;51.04;33.79;68.92;;
73638;Laerm;53743;51.100;5.874;2023-05-20T04:53:57;52.77;34.01;70.74;;
73638;Laerm;53743;51.100;5.874;2023-05-20T04:55:00;38.86;33.40;49.20;;
73638;Laerm;53743;51.100;5.874;2023-05-20T04:56:02;56.36;33.81;71.05;;
73638;Laerm;53743;51.100;5.874;2023-05-20T04:57:06;57.81;34.89;76.17;;
73638;Laerm;53743;51.100;5.874;2023-05-20T04:58:10;56.44;33.38;70.83;;
73638;Laerm;53743;51.100;5.874;2023-05-20T04:59:15;38.92;32.68;60.35;;
73638;Laerm;53743;51.100;5.874;2023-05-20T05:00:18;40.97;33.70;50.20;;
73638;Laerm;53743;51.100;5.874;2023-05-20T05:01:19;57.35;34.02;72.20;;
73638;Laerm;53743;51.100;5.874;2023-05-20T05:02:22;45.66;35.58;57.40;;
73638;Laerm;53743;51.100;5.874;2023-05-20T05:03:25;61.01;37.62;75.52;;
73638;Laerm;53743;51.100;5.874;2023-05-20T05:04:27;60.22;33.39;76.33;;
73638;Laerm;53743;51.100;5.874;2023-05-20T05:05:29;57.17;33.36;70.64;;
73638;Laerm;53743;51.100;5.874;2023-05-20T05:06:32;40.81;33.54;57.26;;
73638;Laerm;53743;51.100;5.874;2023-05-20T05:07:34;52.51;34.30;65.92;;
73638;Laerm;53743;51.100;5.874;2023-05-20T05:08:36;58.74;35.52;71.25;;
73638;Laerm;53743;51.100;5.874;2023-05-20T05:09:38;60.33;42.28;75.35;;
73638;Laerm;53743;51.100;5.874;2023-05-20T05:10:40;61.91;41.31;73.59;;
73638;Laerm;53743;51.100;5.874;2023-05-20T05:11:43;45.12;35.03;63.70;;
73638;Laerm;53743;51.100;5.874;2023-05-20T05:12:49;61.98;39.61;74.83;;
73638;Laerm;53743;51.100;5.874;2023-05-20T05:13:51;56.48;33.66;71.02;;
73638;Laerm;53743;51.100;5.874;2023-05-20T05:14:57;60.33;34.02;75.66;;
73638;Laerm;53743;51.100;5.874;2023-05-20T05:16:00;55.08;34.02;69.55;;
73638;Laerm;53743;51.100;5.874;2023-05-20T05:17:04;59.22;34.05;72.20;;
73638;Laerm;53743;51.100;5.874;2023-05-20T05:18:06;58.53;34.78;75.61;;
73638;Laerm;53743;51.100;5.874;2023-05-20T05:19:11;62.53;34.12;77.87;;
73638;Laerm;53743;51.100;5.874;2023-05-20T05:20:14;39.86;32.78;52.92;;
73638;Laerm;53743;51.100;5.874;2023-05-20T05:21:16;40.27;34.10;49.79;;
73638;Laerm;53743;51.100;5.874;2023-05-20T05:22:20;39.85;33.63;55.54;;
73638;Laerm;53743;51.100;5.874;2023-05-20T05:23:21;57.60;33.99;71.42;;
73638;Laerm;53743;51.100;5.874;2023-05-20T05:24:24;56.22;34.58;76.72;;
73638;Laerm;53743;51.100;5.874;2023-05-20T05:25:25;58.28;35.36;74.28;;
73638;Laerm;53743;51.100;5.874;2023-05-20T05:26:28;45.31;33.55;62.85;;
73638;Laerm;53743;51.100;5.874;2023-05-20T05:27:30;40.86;32.76;66.21;;
73638;Laerm;53743;51.100;5.874;2023-05-20T05:28:33;56.53;33.58;70.97;;
73638;Laerm;53743;51.100;5.874;2023-05-20T05:29:34;53.95;33.40;69.38;;
73638;Laerm;53743;51.100;5.874;2023-05-20T05:30:37;58.99;33.68;75.01;;
73638;Laerm;53743;51.100;5.874;2023-05-20T05:31:40;59.52;36.37;75.37;;
73638;Laerm;53743;51.100;5.874;2023-05-20T05:32:43;53.76;31.96;77.17;;
73638;Laerm;53743;51.100;5.874;2023-05-20T05:33:44;41.14;32.03;57.55;;
73638;Laerm;53743;51.100;5.874;2023-05-20T05:34:48;57.20;33.22;72.21;;
73638;Laerm;53743;51.100;5.874;2023-05-20T05:35:50;59.94;34.76;73.76;;
73638;Laerm;53743;51.100;5.874;2023-05-20T05:36:52;52.99;33.92;64.92;;
73638;Laerm;53743;51.100;5.874;2023-05-20T05:37:54;51.95;34.33;66.64;;
73638;Laerm;53743;51.100;5.874;2023-05-20T05:38:57;38.49;33.31;48.73;;
73638;Laerm;53743;51.100;5.874;2023-05-20T05:40:01;60.27;34.37;74.41;;
73638;Laerm;53743;51.100;5.874;2023-05-20T05:41:04;43.77;35.06;58.95;;
73638;Laerm;53743;51.100;5.874;2023-05-20T05:42:06;56.95;36.56;71.33;;
73638;Laerm;53743;51.100;5.874;2023-05-20T05:43:09;57.52;35.37;72.32;;
73638;Laerm;53743;51.100;5.874;2023-05-20T05:44:11;61.04;35.67;75.07;;
73638;Laerm;53743;51.100;5.874;2023-05-20T05:45:14;61.32;38.32;71.12;;
73638;Laerm;53743;51.100;5.874;2023-05-20T05:46:18;61.77;45.42;71.76;;
73638;Laerm;53743;51.100;5.874;2023-05-20T05:47:21;62.01;37.05;74.41;;
73638;Laerm;53743;51.100;5.874;2023-05-20T05:48:23;62.79;41.31;74.13;;
73638;Laerm;53743;51.100;5.874;2023-05-20T05:49:31;60.65;35.03;73.10;;
73638;Laerm;53743;51.100;5.874;2023-05-20T05:50:34;59.64;34.85;75.02;;
73638;Laerm;53743;51.100;5.874;2023-05-20T05:51:40;58.81;36.22;71.92;;
73638;Laerm;53743;51.100;5.874;2023-05-20T05:52:41;47.49;36.14;54.22;;
73638;Laerm;53743;51.100;5.874;2023-05-20T05:53:44;63.94;38.76;74.43;;